<?xml version="1.0" encoding="UTF-8" standalone="no" ?>
<gpx xmlns="http://www.topografix.com/GPX/1/1" xmlns:xsi="http://www.w3.org/2001/XMLSchema-instance" xsi:schemaLocation="http://www.topografix.com/GPX/1/1 http://www.topografix.com/GPX/1/1/gpx.xsd" version="1.1" creator="VisuGPX - https://www.visugpx.com">
  <metadata>
    <name>Manureva 2016 MN</name>
    <desc><![CDATA[Beau soleil au départ, dans le vallon du Pommeret, dans les grimpettes de la Popinerie et de l'Église de Saint Nom puis sur le retour par la ferme de Beaurain ... Bref, c'était bien.

Et pour les fanas des stats : 9,3 km, 212m de D , le tout en moins de 2 heures.]]></desc>
  </metadata>
  <trk>
    <name><![CDATA[17/07/2016 09:56:23 UTC]]></name>
    <trkseg>
      <trkpt lat="48.73963" lon="1.96181">
        <ele>172.40002441406</ele>
        <time>2016-07-17T07:56:23Z</time>
      </trkpt>
      <trkpt lat="48.73955" lon="1.96158">
        <ele>172</ele>
        <time>2016-07-17T07:56:38Z</time>
      </trkpt>
      <trkpt lat="48.73953" lon="1.96143">
        <ele>172.59997558594</ele>
        <time>2016-07-17T07:56:46Z</time>
      </trkpt>
      <trkpt lat="48.73946" lon="1.96134">
        <ele>173</ele>
        <time>2016-07-17T07:56:52Z</time>
      </trkpt>
      <trkpt lat="48.73933" lon="1.96119">
        <ele>172</ele>
        <time>2016-07-17T07:57:04Z</time>
      </trkpt>
      <trkpt lat="48.73924" lon="1.96108">
        <ele>171.40002441406</ele>
        <time>2016-07-17T07:57:14Z</time>
      </trkpt>
      <trkpt lat="48.73923" lon="1.96106">
        <ele>171.40002441406</ele>
        <time>2016-07-17T07:57:15Z</time>
      </trkpt>
      <trkpt lat="48.73918" lon="1.96101">
        <ele>171.20001220703</ele>
        <time>2016-07-17T07:57:20Z</time>
      </trkpt>
      <trkpt lat="48.73904" lon="1.96085">
        <ele>171</ele>
        <time>2016-07-17T07:57:33Z</time>
      </trkpt>
      <trkpt lat="48.73889" lon="1.96068">
        <ele>169.40002441406</ele>
        <time>2016-07-17T07:57:46Z</time>
      </trkpt>
      <trkpt lat="48.73882" lon="1.96057">
        <ele>167.79998779297</ele>
        <time>2016-07-17T07:57:54Z</time>
      </trkpt>
      <trkpt lat="48.73872" lon="1.96034">
        <ele>166.79998779297</ele>
        <time>2016-07-17T07:58:07Z</time>
      </trkpt>
      <trkpt lat="48.7387" lon="1.96031">
        <ele>166.79998779297</ele>
        <time>2016-07-17T07:58:09Z</time>
      </trkpt>
      <trkpt lat="48.73854" lon="1.96014">
        <ele>166.59997558594</ele>
        <time>2016-07-17T07:58:22Z</time>
      </trkpt>
      <trkpt lat="48.73847" lon="1.96006">
        <ele>166.59997558594</ele>
        <time>2016-07-17T07:58:29Z</time>
      </trkpt>
      <trkpt lat="48.73833" lon="1.95987">
        <ele>166.20001220703</ele>
        <time>2016-07-17T07:58:43Z</time>
      </trkpt>
      <trkpt lat="48.73818" lon="1.9597">
        <ele>165.40002441406</ele>
        <time>2016-07-17T07:58:56Z</time>
      </trkpt>
      <trkpt lat="48.73803" lon="1.95952">
        <ele>166.40002441406</ele>
        <time>2016-07-17T07:59:10Z</time>
      </trkpt>
      <trkpt lat="48.738" lon="1.95948">
        <ele>166.59997558594</ele>
        <time>2016-07-17T07:59:13Z</time>
      </trkpt>
      <trkpt lat="48.73786" lon="1.95931">
        <ele>167.20001220703</ele>
        <time>2016-07-17T07:59:26Z</time>
      </trkpt>
      <trkpt lat="48.73784" lon="1.95929">
        <ele>167.40002441406</ele>
        <time>2016-07-17T07:59:28Z</time>
      </trkpt>
      <trkpt lat="48.7377" lon="1.95911">
        <ele>167.40002441406</ele>
        <time>2016-07-17T07:59:43Z</time>
      </trkpt>
      <trkpt lat="48.73762" lon="1.95901">
        <ele>168</ele>
        <time>2016-07-17T07:59:49Z</time>
      </trkpt>
      <trkpt lat="48.7376" lon="1.95897">
        <ele>168.20001220703</ele>
        <time>2016-07-17T07:59:51Z</time>
      </trkpt>
      <trkpt lat="48.73748" lon="1.95886">
        <ele>169.79998779297</ele>
        <time>2016-07-17T08:00:01Z</time>
      </trkpt>
      <trkpt lat="48.73733" lon="1.9587">
        <ele>171.20001220703</ele>
        <time>2016-07-17T08:00:13Z</time>
      </trkpt>
      <trkpt lat="48.73718" lon="1.95852">
        <ele>171.20001220703</ele>
        <time>2016-07-17T08:00:26Z</time>
      </trkpt>
      <trkpt lat="48.73714" lon="1.95848">
        <ele>171</ele>
        <time>2016-07-17T08:00:30Z</time>
      </trkpt>
      <trkpt lat="48.73699" lon="1.95833">
        <ele>170.20001220703</ele>
        <time>2016-07-17T08:00:43Z</time>
      </trkpt>
      <trkpt lat="48.73686" lon="1.95817">
        <ele>169.79998779297</ele>
        <time>2016-07-17T08:00:55Z</time>
      </trkpt>
      <trkpt lat="48.7368" lon="1.95813">
        <ele>169.59997558594</ele>
        <time>2016-07-17T08:00:59Z</time>
      </trkpt>
      <trkpt lat="48.73664" lon="1.95801">
        <ele>168.59997558594</ele>
        <time>2016-07-17T08:01:11Z</time>
      </trkpt>
      <trkpt lat="48.73647" lon="1.95787">
        <ele>167.20001220703</ele>
        <time>2016-07-17T08:01:25Z</time>
      </trkpt>
      <trkpt lat="48.7363" lon="1.95773">
        <ele>169</ele>
        <time>2016-07-17T08:01:37Z</time>
      </trkpt>
      <trkpt lat="48.73613" lon="1.95761">
        <ele>169.79998779297</ele>
        <time>2016-07-17T08:01:50Z</time>
      </trkpt>
      <trkpt lat="48.73596" lon="1.95749">
        <ele>169.20001220703</ele>
        <time>2016-07-17T08:02:03Z</time>
      </trkpt>
      <trkpt lat="48.73593" lon="1.95747">
        <ele>169.20001220703</ele>
        <time>2016-07-17T08:02:05Z</time>
      </trkpt>
      <trkpt lat="48.73588" lon="1.95743">
        <ele>169.40002441406</ele>
        <time>2016-07-17T08:02:09Z</time>
      </trkpt>
      <trkpt lat="48.73572" lon="1.95729">
        <ele>169.59997558594</ele>
        <time>2016-07-17T08:02:21Z</time>
      </trkpt>
      <trkpt lat="48.73556" lon="1.95714">
        <ele>169.20001220703</ele>
        <time>2016-07-17T08:02:34Z</time>
      </trkpt>
      <trkpt lat="48.7354" lon="1.957">
        <ele>169</ele>
        <time>2016-07-17T08:02:46Z</time>
      </trkpt>
      <trkpt lat="48.73523" lon="1.95689">
        <ele>169.59997558594</ele>
        <time>2016-07-17T08:03:00Z</time>
      </trkpt>
      <trkpt lat="48.73513" lon="1.95679">
        <ele>170</ele>
        <time>2016-07-17T08:03:10Z</time>
      </trkpt>
      <trkpt lat="48.73498" lon="1.95668">
        <ele>170.20001220703</ele>
        <time>2016-07-17T08:03:24Z</time>
      </trkpt>
      <trkpt lat="48.73482" lon="1.95651">
        <ele>169</ele>
        <time>2016-07-17T08:03:38Z</time>
      </trkpt>
      <trkpt lat="48.73478" lon="1.95646">
        <ele>169</ele>
        <time>2016-07-17T08:03:42Z</time>
      </trkpt>
      <trkpt lat="48.73463" lon="1.95631">
        <ele>168.79998779297</ele>
        <time>2016-07-17T08:03:57Z</time>
      </trkpt>
      <trkpt lat="48.73453" lon="1.9562">
        <ele>168.59997558594</ele>
        <time>2016-07-17T08:04:06Z</time>
      </trkpt>
      <trkpt lat="48.73438" lon="1.95603">
        <ele>168.40002441406</ele>
        <time>2016-07-17T08:04:27Z</time>
      </trkpt>
      <trkpt lat="48.73423" lon="1.9559">
        <ele>168.79998779297</ele>
        <time>2016-07-17T08:04:44Z</time>
      </trkpt>
      <trkpt lat="48.73407" lon="1.95573">
        <ele>169.59997558594</ele>
        <time>2016-07-17T08:05:03Z</time>
      </trkpt>
      <trkpt lat="48.73392" lon="1.95558">
        <ele>170</ele>
        <time>2016-07-17T08:05:27Z</time>
      </trkpt>
      <trkpt lat="48.73378" lon="1.9554">
        <ele>171.40002441406</ele>
        <time>2016-07-17T08:05:58Z</time>
      </trkpt>
      <trkpt lat="48.73368" lon="1.95519">
        <ele>172.20001220703</ele>
        <time>2016-07-17T08:06:13Z</time>
      </trkpt>
      <trkpt lat="48.73376" lon="1.95494">
        <ele>172.40002441406</ele>
        <time>2016-07-17T08:06:27Z</time>
      </trkpt>
      <trkpt lat="48.73387" lon="1.95473">
        <ele>172.59997558594</ele>
        <time>2016-07-17T08:06:41Z</time>
      </trkpt>
      <trkpt lat="48.734" lon="1.95452">
        <ele>172.79998779297</ele>
        <time>2016-07-17T08:06:55Z</time>
      </trkpt>
      <trkpt lat="48.73412" lon="1.95431">
        <ele>173.40002441406</ele>
        <time>2016-07-17T08:07:10Z</time>
      </trkpt>
      <trkpt lat="48.73427" lon="1.95415">
        <ele>173.79998779297</ele>
        <time>2016-07-17T08:07:22Z</time>
      </trkpt>
      <trkpt lat="48.73443" lon="1.95399">
        <ele>174.20001220703</ele>
        <time>2016-07-17T08:07:35Z</time>
      </trkpt>
      <trkpt lat="48.73456" lon="1.95379">
        <ele>175</ele>
        <time>2016-07-17T08:07:48Z</time>
      </trkpt>
      <trkpt lat="48.73465" lon="1.9537">
        <ele>175</ele>
        <time>2016-07-17T08:07:56Z</time>
      </trkpt>
      <trkpt lat="48.73483" lon="1.95371">
        <ele>175.59997558594</ele>
        <time>2016-07-17T08:08:09Z</time>
      </trkpt>
      <trkpt lat="48.73491" lon="1.95368">
        <ele>174.79998779297</ele>
        <time>2016-07-17T08:08:15Z</time>
      </trkpt>
      <trkpt lat="48.73487" lon="1.95354">
        <ele>173</ele>
        <time>2016-07-17T08:08:26Z</time>
      </trkpt>
      <trkpt lat="48.73483" lon="1.95341">
        <ele>171.79998779297</ele>
        <time>2016-07-17T08:08:34Z</time>
      </trkpt>
      <trkpt lat="48.7349" lon="1.95316">
        <ele>168.59997558594</ele>
        <time>2016-07-17T08:08:53Z</time>
      </trkpt>
      <trkpt lat="48.73503" lon="1.95297">
        <ele>167.79998779297</ele>
        <time>2016-07-17T08:09:07Z</time>
      </trkpt>
      <trkpt lat="48.73504" lon="1.95295">
        <ele>167.59997558594</ele>
        <time>2016-07-17T08:09:09Z</time>
      </trkpt>
      <trkpt lat="48.73507" lon="1.95293">
        <ele>167.40002441406</ele>
        <time>2016-07-17T08:09:13Z</time>
      </trkpt>
      <trkpt lat="48.73523" lon="1.95296">
        <ele>170.20001220703</ele>
        <time>2016-07-17T08:09:37Z</time>
      </trkpt>
      <trkpt lat="48.73532" lon="1.95296">
        <ele>171.40002441406</ele>
        <time>2016-07-17T08:09:47Z</time>
      </trkpt>
      <trkpt lat="48.73543" lon="1.95273">
        <ele>173.20001220703</ele>
        <time>2016-07-17T08:10:05Z</time>
      </trkpt>
      <trkpt lat="48.73549" lon="1.95248">
        <ele>173.79998779297</ele>
        <time>2016-07-17T08:10:31Z</time>
      </trkpt>
      <trkpt lat="48.73556" lon="1.95223">
        <ele>174.40002441406</ele>
        <time>2016-07-17T08:10:46Z</time>
      </trkpt>
      <trkpt lat="48.73562" lon="1.95197">
        <ele>175</ele>
        <time>2016-07-17T08:11:00Z</time>
      </trkpt>
      <trkpt lat="48.73561" lon="1.95171">
        <ele>176</ele>
        <time>2016-07-17T08:11:16Z</time>
      </trkpt>
      <trkpt lat="48.73552" lon="1.95147">
        <ele>176.79998779297</ele>
        <time>2016-07-17T08:11:30Z</time>
      </trkpt>
      <trkpt lat="48.73555" lon="1.95137">
        <ele>177</ele>
        <time>2016-07-17T08:11:35Z</time>
      </trkpt>
      <trkpt lat="48.7356" lon="1.9511">
        <ele>175.20001220703</ele>
        <time>2016-07-17T08:11:49Z</time>
      </trkpt>
      <trkpt lat="48.73566" lon="1.95096">
        <ele>173.79998779297</ele>
        <time>2016-07-17T08:11:58Z</time>
      </trkpt>
      <trkpt lat="48.73573" lon="1.95079">
        <ele>172.79998779297</ele>
        <time>2016-07-17T08:12:11Z</time>
      </trkpt>
      <trkpt lat="48.73561" lon="1.95068">
        <ele>172.20001220703</ele>
        <time>2016-07-17T08:12:21Z</time>
      </trkpt>
      <trkpt lat="48.73552" lon="1.95066">
        <ele>170.79998779297</ele>
        <time>2016-07-17T08:12:31Z</time>
      </trkpt>
      <trkpt lat="48.73547" lon="1.95064">
        <ele>170</ele>
        <time>2016-07-17T08:12:38Z</time>
      </trkpt>
      <trkpt lat="48.7354" lon="1.95065">
        <ele>169.59997558594</ele>
        <time>2016-07-17T08:12:43Z</time>
      </trkpt>
      <trkpt lat="48.73535" lon="1.95064">
        <ele>169</ele>
        <time>2016-07-17T08:12:47Z</time>
      </trkpt>
      <trkpt lat="48.73529" lon="1.9506">
        <ele>168</ele>
        <time>2016-07-17T08:12:52Z</time>
      </trkpt>
      <trkpt lat="48.73521" lon="1.95058">
        <ele>167.20001220703</ele>
        <time>2016-07-17T08:12:57Z</time>
      </trkpt>
      <trkpt lat="48.73503" lon="1.95059">
        <ele>165.40002441406</ele>
        <time>2016-07-17T08:13:11Z</time>
      </trkpt>
      <trkpt lat="48.73498" lon="1.95059">
        <ele>165</ele>
        <time>2016-07-17T08:13:15Z</time>
      </trkpt>
      <trkpt lat="48.73485" lon="1.95055">
        <ele>164.20001220703</ele>
        <time>2016-07-17T08:13:23Z</time>
      </trkpt>
      <trkpt lat="48.73466" lon="1.95057">
        <ele>163</ele>
        <time>2016-07-17T08:13:35Z</time>
      </trkpt>
      <trkpt lat="48.73463" lon="1.95056">
        <ele>162.59997558594</ele>
        <time>2016-07-17T08:13:38Z</time>
      </trkpt>
      <trkpt lat="48.73456" lon="1.95054">
        <ele>161.59997558594</ele>
        <time>2016-07-17T08:13:45Z</time>
      </trkpt>
      <trkpt lat="48.73444" lon="1.95043">
        <ele>160.79998779297</ele>
        <time>2016-07-17T08:13:54Z</time>
      </trkpt>
      <trkpt lat="48.73435" lon="1.95035">
        <ele>160.59997558594</ele>
        <time>2016-07-17T08:14:00Z</time>
      </trkpt>
      <trkpt lat="48.73433" lon="1.95027">
        <ele>160</ele>
        <time>2016-07-17T08:14:05Z</time>
      </trkpt>
      <trkpt lat="48.73429" lon="1.95015">
        <ele>159</ele>
        <time>2016-07-17T08:14:10Z</time>
      </trkpt>
      <trkpt lat="48.73427" lon="1.95012">
        <ele>158.59997558594</ele>
        <time>2016-07-17T08:14:12Z</time>
      </trkpt>
      <trkpt lat="48.73415" lon="1.94991">
        <ele>156.79998779297</ele>
        <time>2016-07-17T08:14:23Z</time>
      </trkpt>
      <trkpt lat="48.73414" lon="1.94985">
        <ele>155.79998779297</ele>
        <time>2016-07-17T08:14:26Z</time>
      </trkpt>
      <trkpt lat="48.73412" lon="1.94981">
        <ele>155</ele>
        <time>2016-07-17T08:14:28Z</time>
      </trkpt>
      <trkpt lat="48.73406" lon="1.94979">
        <ele>153.59997558594</ele>
        <time>2016-07-17T08:14:36Z</time>
      </trkpt>
      <trkpt lat="48.73387" lon="1.9498">
        <ele>153.59997558594</ele>
        <time>2016-07-17T08:15:02Z</time>
      </trkpt>
      <trkpt lat="48.73369" lon="1.9498">
        <ele>153.40002441406</ele>
        <time>2016-07-17T08:15:11Z</time>
      </trkpt>
      <trkpt lat="48.73367" lon="1.9498">
        <ele>153</ele>
        <time>2016-07-17T08:15:13Z</time>
      </trkpt>
      <trkpt lat="48.73361" lon="1.94979">
        <ele>152</ele>
        <time>2016-07-17T08:15:18Z</time>
      </trkpt>
      <trkpt lat="48.73351" lon="1.94979">
        <ele>150.40002441406</ele>
        <time>2016-07-17T08:15:25Z</time>
      </trkpt>
      <trkpt lat="48.73348" lon="1.94976">
        <ele>149.59997558594</ele>
        <time>2016-07-17T08:15:27Z</time>
      </trkpt>
      <trkpt lat="48.73348" lon="1.94959">
        <ele>147.20001220703</ele>
        <time>2016-07-17T08:15:37Z</time>
      </trkpt>
      <trkpt lat="48.73347" lon="1.9495">
        <ele>146</ele>
        <time>2016-07-17T08:15:42Z</time>
      </trkpt>
      <trkpt lat="48.73348" lon="1.94939">
        <ele>144.79998779297</ele>
        <time>2016-07-17T08:15:48Z</time>
      </trkpt>
      <trkpt lat="48.73355" lon="1.94916">
        <ele>142.20001220703</ele>
        <time>2016-07-17T08:16:18Z</time>
      </trkpt>
      <trkpt lat="48.73362" lon="1.94889">
        <ele>140.79998779297</ele>
        <time>2016-07-17T08:16:38Z</time>
      </trkpt>
      <trkpt lat="48.7337" lon="1.94864">
        <ele>140.20001220703</ele>
        <time>2016-07-17T08:16:53Z</time>
      </trkpt>
      <trkpt lat="48.73378" lon="1.94845">
        <ele>139.40002441406</ele>
        <time>2016-07-17T08:17:03Z</time>
      </trkpt>
      <trkpt lat="48.73379" lon="1.94832">
        <ele>138.79998779297</ele>
        <time>2016-07-17T08:17:08Z</time>
      </trkpt>
      <trkpt lat="48.73383" lon="1.94825">
        <ele>138.20001220703</ele>
        <time>2016-07-17T08:17:12Z</time>
      </trkpt>
      <trkpt lat="48.73381" lon="1.94809">
        <ele>137.20001220703</ele>
        <time>2016-07-17T08:17:21Z</time>
      </trkpt>
      <trkpt lat="48.73385" lon="1.94782">
        <ele>135.20001220703</ele>
        <time>2016-07-17T08:17:36Z</time>
      </trkpt>
      <trkpt lat="48.73385" lon="1.94752">
        <ele>133.20001220703</ele>
        <time>2016-07-17T08:17:50Z</time>
      </trkpt>
      <trkpt lat="48.73395" lon="1.94731">
        <ele>131</ele>
        <time>2016-07-17T08:18:05Z</time>
      </trkpt>
      <trkpt lat="48.73403" lon="1.94714">
        <ele>129.40002441406</ele>
        <time>2016-07-17T08:18:18Z</time>
      </trkpt>
      <trkpt lat="48.73401" lon="1.94702">
        <ele>128.79998779297</ele>
        <time>2016-07-17T08:18:25Z</time>
      </trkpt>
      <trkpt lat="48.73396" lon="1.94689">
        <ele>128.20001220703</ele>
        <time>2016-07-17T08:18:32Z</time>
      </trkpt>
      <trkpt lat="48.73385" lon="1.9467">
        <ele>127</ele>
        <time>2016-07-17T08:18:44Z</time>
      </trkpt>
      <trkpt lat="48.73384" lon="1.94668">
        <ele>127</ele>
        <time>2016-07-17T08:18:45Z</time>
      </trkpt>
      <trkpt lat="48.7338" lon="1.94651">
        <ele>125.79998779297</ele>
        <time>2016-07-17T08:18:54Z</time>
      </trkpt>
      <trkpt lat="48.73392" lon="1.94631">
        <ele>125.20001220703</ele>
        <time>2016-07-17T08:19:12Z</time>
      </trkpt>
      <trkpt lat="48.73399" lon="1.94606">
        <ele>124.20001220703</ele>
        <time>2016-07-17T08:19:25Z</time>
      </trkpt>
      <trkpt lat="48.73398" lon="1.94577">
        <ele>124</ele>
        <time>2016-07-17T08:19:39Z</time>
      </trkpt>
      <trkpt lat="48.73397" lon="1.9455">
        <ele>123.79998779297</ele>
        <time>2016-07-17T08:19:51Z</time>
      </trkpt>
      <trkpt lat="48.73395" lon="1.94541">
        <ele>124</ele>
        <time>2016-07-17T08:19:56Z</time>
      </trkpt>
      <trkpt lat="48.73395" lon="1.9453">
        <ele>124</ele>
        <time>2016-07-17T08:20:02Z</time>
      </trkpt>
      <trkpt lat="48.7339" lon="1.9451">
        <ele>124</ele>
        <time>2016-07-17T08:20:12Z</time>
      </trkpt>
      <trkpt lat="48.73382" lon="1.94499">
        <ele>124.40002441406</ele>
        <time>2016-07-17T08:20:25Z</time>
      </trkpt>
      <trkpt lat="48.73384" lon="1.94488">
        <ele>124.20001220703</ele>
        <time>2016-07-17T08:20:30Z</time>
      </trkpt>
      <trkpt lat="48.73388" lon="1.94478">
        <ele>123.79998779297</ele>
        <time>2016-07-17T08:20:36Z</time>
      </trkpt>
      <trkpt lat="48.73389" lon="1.94469">
        <ele>123.20001220703</ele>
        <time>2016-07-17T08:20:42Z</time>
      </trkpt>
      <trkpt lat="48.73393" lon="1.94466">
        <ele>122.79998779297</ele>
        <time>2016-07-17T08:20:46Z</time>
      </trkpt>
      <trkpt lat="48.73397" lon="1.94463">
        <ele>122.20001220703</ele>
        <time>2016-07-17T08:20:50Z</time>
      </trkpt>
      <trkpt lat="48.73407" lon="1.94463">
        <ele>121.40002441406</ele>
        <time>2016-07-17T08:20:56Z</time>
      </trkpt>
      <trkpt lat="48.73412" lon="1.94465">
        <ele>120.59997558594</ele>
        <time>2016-07-17T08:21:00Z</time>
      </trkpt>
      <trkpt lat="48.73419" lon="1.94462">
        <ele>120.79998779297</ele>
        <time>2016-07-17T08:21:05Z</time>
      </trkpt>
      <trkpt lat="48.7342" lon="1.94457">
        <ele>121</ele>
        <time>2016-07-17T08:21:08Z</time>
      </trkpt>
      <trkpt lat="48.73422" lon="1.94448">
        <ele>121.59997558594</ele>
        <time>2016-07-17T08:21:15Z</time>
      </trkpt>
      <trkpt lat="48.73422" lon="1.94444">
        <ele>122.40002441406</ele>
        <time>2016-07-17T08:21:18Z</time>
      </trkpt>
      <trkpt lat="48.73425" lon="1.94424">
        <ele>124.59997558594</ele>
        <time>2016-07-17T08:21:34Z</time>
      </trkpt>
      <trkpt lat="48.73434" lon="1.94399">
        <ele>125.59997558594</ele>
        <time>2016-07-17T08:21:47Z</time>
      </trkpt>
      <trkpt lat="48.73435" lon="1.94394">
        <ele>125.40002441406</ele>
        <time>2016-07-17T08:21:50Z</time>
      </trkpt>
      <trkpt lat="48.73435" lon="1.94393">
        <ele>125.40002441406</ele>
        <time>2016-07-17T08:21:51Z</time>
      </trkpt>
      <trkpt lat="48.73435" lon="1.94386">
        <ele>125</ele>
        <time>2016-07-17T08:21:55Z</time>
      </trkpt>
      <trkpt lat="48.73437" lon="1.94375">
        <ele>124.20001220703</ele>
        <time>2016-07-17T08:21:59Z</time>
      </trkpt>
      <trkpt lat="48.73438" lon="1.94364">
        <ele>123.79998779297</ele>
        <time>2016-07-17T08:22:04Z</time>
      </trkpt>
      <trkpt lat="48.73439" lon="1.94349">
        <ele>123.79998779297</ele>
        <time>2016-07-17T08:22:11Z</time>
      </trkpt>
      <trkpt lat="48.73435" lon="1.94337">
        <ele>124.40002441406</ele>
        <time>2016-07-17T08:22:19Z</time>
      </trkpt>
      <trkpt lat="48.73433" lon="1.94332">
        <ele>124.20001220703</ele>
        <time>2016-07-17T08:22:22Z</time>
      </trkpt>
      <trkpt lat="48.73433" lon="1.94325">
        <ele>124</ele>
        <time>2016-07-17T08:22:26Z</time>
      </trkpt>
      <trkpt lat="48.73429" lon="1.94298">
        <ele>123.40002441406</ele>
        <time>2016-07-17T08:22:38Z</time>
      </trkpt>
      <trkpt lat="48.73423" lon="1.94272">
        <ele>121.59997558594</ele>
        <time>2016-07-17T08:22:51Z</time>
      </trkpt>
      <trkpt lat="48.73422" lon="1.94268">
        <ele>121.40002441406</ele>
        <time>2016-07-17T08:22:53Z</time>
      </trkpt>
      <trkpt lat="48.7342" lon="1.94265">
        <ele>121.40002441406</ele>
        <time>2016-07-17T08:22:56Z</time>
      </trkpt>
      <trkpt lat="48.73419" lon="1.94262">
        <ele>120.59997558594</ele>
        <time>2016-07-17T08:25:05Z</time>
      </trkpt>
      <trkpt lat="48.73416" lon="1.94268">
        <ele>117.59997558594</ele>
        <time>2016-07-17T08:25:59Z</time>
      </trkpt>
      <trkpt lat="48.7341" lon="1.94279">
        <ele>113.59997558594</ele>
        <time>2016-07-17T08:28:24Z</time>
      </trkpt>
      <trkpt lat="48.73397" lon="1.94303">
        <ele>113.40002441406</ele>
        <time>2016-07-17T08:28:37Z</time>
      </trkpt>
      <trkpt lat="48.73382" lon="1.94328">
        <ele>114.79998779297</ele>
        <time>2016-07-17T08:28:51Z</time>
      </trkpt>
      <trkpt lat="48.73365" lon="1.9435">
        <ele>114.40002441406</ele>
        <time>2016-07-17T08:29:05Z</time>
      </trkpt>
      <trkpt lat="48.73349" lon="1.94368">
        <ele>114</ele>
        <time>2016-07-17T08:29:18Z</time>
      </trkpt>
      <trkpt lat="48.73343" lon="1.94376">
        <ele>114.40002441406</ele>
        <time>2016-07-17T08:29:23Z</time>
      </trkpt>
      <trkpt lat="48.73338" lon="1.94383">
        <ele>114.79998779297</ele>
        <time>2016-07-17T08:29:28Z</time>
      </trkpt>
      <trkpt lat="48.73336" lon="1.94386">
        <ele>115</ele>
        <time>2016-07-17T08:29:30Z</time>
      </trkpt>
      <trkpt lat="48.73318" lon="1.94413">
        <ele>116.59997558594</ele>
        <time>2016-07-17T08:29:47Z</time>
      </trkpt>
      <trkpt lat="48.73313" lon="1.9442">
        <ele>117.20001220703</ele>
        <time>2016-07-17T08:29:52Z</time>
      </trkpt>
      <trkpt lat="48.73302" lon="1.94444">
        <ele>118.20001220703</ele>
        <time>2016-07-17T08:30:05Z</time>
      </trkpt>
      <trkpt lat="48.73295" lon="1.94462">
        <ele>119.20001220703</ele>
        <time>2016-07-17T08:30:15Z</time>
      </trkpt>
      <trkpt lat="48.73285" lon="1.94486">
        <ele>118.59997558594</ele>
        <time>2016-07-17T08:30:27Z</time>
      </trkpt>
      <trkpt lat="48.73277" lon="1.94512">
        <ele>119</ele>
        <time>2016-07-17T08:30:38Z</time>
      </trkpt>
      <trkpt lat="48.73267" lon="1.94537">
        <ele>119.40002441406</ele>
        <time>2016-07-17T08:30:50Z</time>
      </trkpt>
      <trkpt lat="48.73257" lon="1.94561">
        <ele>120.79998779297</ele>
        <time>2016-07-17T08:31:02Z</time>
      </trkpt>
      <trkpt lat="48.73245" lon="1.94582">
        <ele>122.20001220703</ele>
        <time>2016-07-17T08:31:14Z</time>
      </trkpt>
      <trkpt lat="48.73232" lon="1.94602">
        <ele>123.59997558594</ele>
        <time>2016-07-17T08:31:26Z</time>
      </trkpt>
      <trkpt lat="48.73219" lon="1.94623">
        <ele>124</ele>
        <time>2016-07-17T08:31:40Z</time>
      </trkpt>
      <trkpt lat="48.73205" lon="1.94641">
        <ele>122.40002441406</ele>
        <time>2016-07-17T08:31:52Z</time>
      </trkpt>
      <trkpt lat="48.73201" lon="1.94647">
        <ele>122.59997558594</ele>
        <time>2016-07-17T08:31:56Z</time>
      </trkpt>
      <trkpt lat="48.73188" lon="1.94668">
        <ele>123.59997558594</ele>
        <time>2016-07-17T08:32:10Z</time>
      </trkpt>
      <trkpt lat="48.73174" lon="1.94687">
        <ele>123.59997558594</ele>
        <time>2016-07-17T08:32:23Z</time>
      </trkpt>
      <trkpt lat="48.73173" lon="1.94688">
        <ele>123.40002441406</ele>
        <time>2016-07-17T08:32:24Z</time>
      </trkpt>
      <trkpt lat="48.73168" lon="1.94697">
        <ele>123.79998779297</ele>
        <time>2016-07-17T08:32:29Z</time>
      </trkpt>
      <trkpt lat="48.73154" lon="1.94715">
        <ele>122.79998779297</ele>
        <time>2016-07-17T08:32:42Z</time>
      </trkpt>
      <trkpt lat="48.7314" lon="1.94734">
        <ele>121</ele>
        <time>2016-07-17T08:32:55Z</time>
      </trkpt>
      <trkpt lat="48.73126" lon="1.94754">
        <ele>121.20001220703</ele>
        <time>2016-07-17T08:33:08Z</time>
      </trkpt>
      <trkpt lat="48.73112" lon="1.94773">
        <ele>121.79998779297</ele>
        <time>2016-07-17T08:33:21Z</time>
      </trkpt>
      <trkpt lat="48.73099" lon="1.94793">
        <ele>121.59997558594</ele>
        <time>2016-07-17T08:33:35Z</time>
      </trkpt>
      <trkpt lat="48.73086" lon="1.94812">
        <ele>120.40002441406</ele>
        <time>2016-07-17T08:33:48Z</time>
      </trkpt>
      <trkpt lat="48.73073" lon="1.94832">
        <ele>119</ele>
        <time>2016-07-17T08:34:01Z</time>
      </trkpt>
      <trkpt lat="48.73059" lon="1.94852">
        <ele>117.79998779297</ele>
        <time>2016-07-17T08:34:14Z</time>
      </trkpt>
      <trkpt lat="48.73046" lon="1.94872">
        <ele>117.59997558594</ele>
        <time>2016-07-17T08:34:28Z</time>
      </trkpt>
      <trkpt lat="48.73033" lon="1.9489">
        <ele>117</ele>
        <time>2016-07-17T08:34:41Z</time>
      </trkpt>
      <trkpt lat="48.7302" lon="1.9491">
        <ele>116.59997558594</ele>
        <time>2016-07-17T08:34:54Z</time>
      </trkpt>
      <trkpt lat="48.73007" lon="1.94929">
        <ele>115.79998779297</ele>
        <time>2016-07-17T08:35:07Z</time>
      </trkpt>
      <trkpt lat="48.72991" lon="1.94943">
        <ele>115.20001220703</ele>
        <time>2016-07-17T08:35:20Z</time>
      </trkpt>
      <trkpt lat="48.72986" lon="1.94942">
        <ele>115</ele>
        <time>2016-07-17T08:35:24Z</time>
      </trkpt>
      <trkpt lat="48.72969" lon="1.94929">
        <ele>113.79998779297</ele>
        <time>2016-07-17T08:35:39Z</time>
      </trkpt>
      <trkpt lat="48.72954" lon="1.94915">
        <ele>114.20001220703</ele>
        <time>2016-07-17T08:35:52Z</time>
      </trkpt>
      <trkpt lat="48.72938" lon="1.94899">
        <ele>114.20001220703</ele>
        <time>2016-07-17T08:36:07Z</time>
      </trkpt>
      <trkpt lat="48.72923" lon="1.94883">
        <ele>115</ele>
        <time>2016-07-17T08:36:19Z</time>
      </trkpt>
      <trkpt lat="48.72909" lon="1.94865">
        <ele>116.40002441406</ele>
        <time>2016-07-17T08:36:31Z</time>
      </trkpt>
      <trkpt lat="48.72895" lon="1.94847">
        <ele>118.40002441406</ele>
        <time>2016-07-17T08:36:44Z</time>
      </trkpt>
      <trkpt lat="48.72881" lon="1.9483">
        <ele>119.20001220703</ele>
        <time>2016-07-17T08:36:57Z</time>
      </trkpt>
      <trkpt lat="48.72866" lon="1.94812">
        <ele>119.59997558594</ele>
        <time>2016-07-17T08:37:11Z</time>
      </trkpt>
      <trkpt lat="48.72851" lon="1.94794">
        <ele>120.40002441406</ele>
        <time>2016-07-17T08:37:25Z</time>
      </trkpt>
      <trkpt lat="48.72836" lon="1.94778">
        <ele>121.59997558594</ele>
        <time>2016-07-17T08:37:38Z</time>
      </trkpt>
      <trkpt lat="48.72829" lon="1.94771">
        <ele>121.79998779297</ele>
        <time>2016-07-17T08:37:44Z</time>
      </trkpt>
      <trkpt lat="48.72817" lon="1.94763">
        <ele>121.79998779297</ele>
        <time>2016-07-17T08:37:53Z</time>
      </trkpt>
      <trkpt lat="48.72801" lon="1.94751">
        <ele>121.59997558594</ele>
        <time>2016-07-17T08:38:06Z</time>
      </trkpt>
      <trkpt lat="48.72784" lon="1.94739">
        <ele>122</ele>
        <time>2016-07-17T08:38:19Z</time>
      </trkpt>
      <trkpt lat="48.72772" lon="1.94729">
        <ele>122.20001220703</ele>
        <time>2016-07-17T08:38:29Z</time>
      </trkpt>
      <trkpt lat="48.72767" lon="1.94724">
        <ele>122.20001220703</ele>
        <time>2016-07-17T08:38:33Z</time>
      </trkpt>
      <trkpt lat="48.72752" lon="1.94708">
        <ele>123</ele>
        <time>2016-07-17T08:38:46Z</time>
      </trkpt>
      <trkpt lat="48.72737" lon="1.94691">
        <ele>124</ele>
        <time>2016-07-17T08:38:59Z</time>
      </trkpt>
      <trkpt lat="48.72724" lon="1.9467">
        <ele>124.59997558594</ele>
        <time>2016-07-17T08:39:13Z</time>
      </trkpt>
      <trkpt lat="48.72711" lon="1.94649">
        <ele>126</ele>
        <time>2016-07-17T08:39:28Z</time>
      </trkpt>
      <trkpt lat="48.72699" lon="1.94627">
        <ele>128.20001220703</ele>
        <time>2016-07-17T08:39:42Z</time>
      </trkpt>
      <trkpt lat="48.72688" lon="1.94604">
        <ele>130.20001220703</ele>
        <time>2016-07-17T08:39:56Z</time>
      </trkpt>
      <trkpt lat="48.72678" lon="1.9458">
        <ele>132.40002441406</ele>
        <time>2016-07-17T08:40:09Z</time>
      </trkpt>
      <trkpt lat="48.72668" lon="1.94558">
        <ele>136</ele>
        <time>2016-07-17T08:40:23Z</time>
      </trkpt>
      <trkpt lat="48.72657" lon="1.94535">
        <ele>138.20001220703</ele>
        <time>2016-07-17T08:40:37Z</time>
      </trkpt>
      <trkpt lat="48.72643" lon="1.94518">
        <ele>140.79998779297</ele>
        <time>2016-07-17T08:40:51Z</time>
      </trkpt>
      <trkpt lat="48.72625" lon="1.94506">
        <ele>142.59997558594</ele>
        <time>2016-07-17T08:41:05Z</time>
      </trkpt>
      <trkpt lat="48.72609" lon="1.94493">
        <ele>142.59997558594</ele>
        <time>2016-07-17T08:41:19Z</time>
      </trkpt>
      <trkpt lat="48.72594" lon="1.94475">
        <ele>142.79998779297</ele>
        <time>2016-07-17T08:41:33Z</time>
      </trkpt>
      <trkpt lat="48.72582" lon="1.94454">
        <ele>142.79998779297</ele>
        <time>2016-07-17T08:41:48Z</time>
      </trkpt>
      <trkpt lat="48.72568" lon="1.94434">
        <ele>143</ele>
        <time>2016-07-17T08:42:03Z</time>
      </trkpt>
      <trkpt lat="48.72554" lon="1.94414">
        <ele>144.40002441406</ele>
        <time>2016-07-17T08:42:17Z</time>
      </trkpt>
      <trkpt lat="48.7255" lon="1.94409">
        <ele>144.40002441406</ele>
        <time>2016-07-17T08:42:22Z</time>
      </trkpt>
      <trkpt lat="48.72546" lon="1.94404">
        <ele>144.79998779297</ele>
        <time>2016-07-17T08:42:26Z</time>
      </trkpt>
      <trkpt lat="48.7254" lon="1.94399">
        <ele>144.79998779297</ele>
        <time>2016-07-17T08:42:32Z</time>
      </trkpt>
      <trkpt lat="48.72536" lon="1.94394">
        <ele>144.79998779297</ele>
        <time>2016-07-17T08:42:36Z</time>
      </trkpt>
      <trkpt lat="48.72526" lon="1.94383">
        <ele>145.79998779297</ele>
        <time>2016-07-17T08:42:45Z</time>
      </trkpt>
      <trkpt lat="48.72522" lon="1.94379">
        <ele>146.20001220703</ele>
        <time>2016-07-17T08:42:49Z</time>
      </trkpt>
      <trkpt lat="48.72517" lon="1.94374">
        <ele>146.59997558594</ele>
        <time>2016-07-17T08:42:53Z</time>
      </trkpt>
      <trkpt lat="48.72504" lon="1.94354">
        <ele>147.79998779297</ele>
        <time>2016-07-17T08:43:07Z</time>
      </trkpt>
      <trkpt lat="48.72493" lon="1.94342">
        <ele>150</ele>
        <time>2016-07-17T08:43:19Z</time>
      </trkpt>
      <trkpt lat="48.72489" lon="1.94333">
        <ele>150.79998779297</ele>
        <time>2016-07-17T08:43:27Z</time>
      </trkpt>
      <trkpt lat="48.72483" lon="1.94324">
        <ele>154</ele>
        <time>2016-07-17T08:45:56Z</time>
      </trkpt>
      <trkpt lat="48.72467" lon="1.94309">
        <ele>154</ele>
        <time>2016-07-17T08:46:11Z</time>
      </trkpt>
      <trkpt lat="48.72451" lon="1.94297">
        <ele>154.79998779297</ele>
        <time>2016-07-17T08:46:23Z</time>
      </trkpt>
      <trkpt lat="48.72435" lon="1.94281">
        <ele>155</ele>
        <time>2016-07-17T08:46:35Z</time>
      </trkpt>
      <trkpt lat="48.72419" lon="1.94266">
        <ele>155.59997558594</ele>
        <time>2016-07-17T08:46:47Z</time>
      </trkpt>
      <trkpt lat="48.72416" lon="1.94264">
        <ele>155.59997558594</ele>
        <time>2016-07-17T08:46:49Z</time>
      </trkpt>
      <trkpt lat="48.72401" lon="1.94248">
        <ele>156.20001220703</ele>
        <time>2016-07-17T08:47:02Z</time>
      </trkpt>
      <trkpt lat="48.72385" lon="1.94232">
        <ele>157</ele>
        <time>2016-07-17T08:47:15Z</time>
      </trkpt>
      <trkpt lat="48.72371" lon="1.94216">
        <ele>157.40002441406</ele>
        <time>2016-07-17T08:47:28Z</time>
      </trkpt>
      <trkpt lat="48.72355" lon="1.94202">
        <ele>156.79998779297</ele>
        <time>2016-07-17T08:47:41Z</time>
      </trkpt>
      <trkpt lat="48.72339" lon="1.94187">
        <ele>156.40002441406</ele>
        <time>2016-07-17T08:47:55Z</time>
      </trkpt>
      <trkpt lat="48.72333" lon="1.94182">
        <ele>156.59997558594</ele>
        <time>2016-07-17T08:48:00Z</time>
      </trkpt>
      <trkpt lat="48.72323" lon="1.94169">
        <ele>157.20001220703</ele>
        <time>2016-07-17T08:48:10Z</time>
      </trkpt>
      <trkpt lat="48.72314" lon="1.94162">
        <ele>158</ele>
        <time>2016-07-17T08:48:18Z</time>
      </trkpt>
      <trkpt lat="48.72306" lon="1.94161">
        <ele>158.59997558594</ele>
        <time>2016-07-17T08:48:26Z</time>
      </trkpt>
      <trkpt lat="48.72302" lon="1.94188">
        <ele>161</ele>
        <time>2016-07-17T08:48:42Z</time>
      </trkpt>
      <trkpt lat="48.723" lon="1.94198">
        <ele>161.40002441406</ele>
        <time>2016-07-17T08:48:47Z</time>
      </trkpt>
      <trkpt lat="48.723" lon="1.94225">
        <ele>161.59997558594</ele>
        <time>2016-07-17T08:49:02Z</time>
      </trkpt>
      <trkpt lat="48.72302" lon="1.94243">
        <ele>162.40002441406</ele>
        <time>2016-07-17T08:49:11Z</time>
      </trkpt>
      <trkpt lat="48.72302" lon="1.94252">
        <ele>163.20001220703</ele>
        <time>2016-07-17T08:49:15Z</time>
      </trkpt>
      <trkpt lat="48.72303" lon="1.9428">
        <ele>164.40002441406</ele>
        <time>2016-07-17T08:49:27Z</time>
      </trkpt>
      <trkpt lat="48.72305" lon="1.94308">
        <ele>164.79998779297</ele>
        <time>2016-07-17T08:49:39Z</time>
      </trkpt>
      <trkpt lat="48.72308" lon="1.94335">
        <ele>164.40002441406</ele>
        <time>2016-07-17T08:49:51Z</time>
      </trkpt>
      <trkpt lat="48.72307" lon="1.94364">
        <ele>164.59997558594</ele>
        <time>2016-07-17T08:50:03Z</time>
      </trkpt>
      <trkpt lat="48.72308" lon="1.94392">
        <ele>165.20001220703</ele>
        <time>2016-07-17T08:50:16Z</time>
      </trkpt>
      <trkpt lat="48.72308" lon="1.94421">
        <ele>165.20001220703</ele>
        <time>2016-07-17T08:50:29Z</time>
      </trkpt>
      <trkpt lat="48.72308" lon="1.94432">
        <ele>165</ele>
        <time>2016-07-17T08:50:34Z</time>
      </trkpt>
      <trkpt lat="48.72308" lon="1.9446">
        <ele>164.20001220703</ele>
        <time>2016-07-17T08:50:47Z</time>
      </trkpt>
      <trkpt lat="48.7231" lon="1.94488">
        <ele>163.59997558594</ele>
        <time>2016-07-17T08:51:00Z</time>
      </trkpt>
      <trkpt lat="48.72308" lon="1.94515">
        <ele>161.20001220703</ele>
        <time>2016-07-17T08:51:14Z</time>
      </trkpt>
      <trkpt lat="48.72309" lon="1.94522">
        <ele>160.20001220703</ele>
        <time>2016-07-17T08:51:18Z</time>
      </trkpt>
      <trkpt lat="48.72315" lon="1.94549">
        <ele>159.20001220703</ele>
        <time>2016-07-17T08:51:30Z</time>
      </trkpt>
      <trkpt lat="48.72324" lon="1.94576">
        <ele>156.79998779297</ele>
        <time>2016-07-17T08:51:42Z</time>
      </trkpt>
      <trkpt lat="48.72333" lon="1.94599">
        <ele>154.59997558594</ele>
        <time>2016-07-17T08:51:52Z</time>
      </trkpt>
      <trkpt lat="48.72345" lon="1.9462">
        <ele>153.20001220703</ele>
        <time>2016-07-17T08:52:03Z</time>
      </trkpt>
      <trkpt lat="48.72359" lon="1.94638">
        <ele>152.20001220703</ele>
        <time>2016-07-17T08:52:15Z</time>
      </trkpt>
      <trkpt lat="48.7237" lon="1.94652">
        <ele>150.59997558594</ele>
        <time>2016-07-17T08:52:25Z</time>
      </trkpt>
      <trkpt lat="48.72377" lon="1.94659">
        <ele>149.20001220703</ele>
        <time>2016-07-17T08:52:31Z</time>
      </trkpt>
      <trkpt lat="48.72386" lon="1.94668">
        <ele>147.40002441406</ele>
        <time>2016-07-17T08:52:38Z</time>
      </trkpt>
      <trkpt lat="48.72382" lon="1.94696">
        <ele>146</ele>
        <time>2016-07-17T08:52:49Z</time>
      </trkpt>
      <trkpt lat="48.72375" lon="1.94723">
        <ele>144.20001220703</ele>
        <time>2016-07-17T08:53:01Z</time>
      </trkpt>
      <trkpt lat="48.72367" lon="1.94748">
        <ele>142.79998779297</ele>
        <time>2016-07-17T08:53:13Z</time>
      </trkpt>
      <trkpt lat="48.72359" lon="1.94773">
        <ele>143.59997558594</ele>
        <time>2016-07-17T08:53:26Z</time>
      </trkpt>
      <trkpt lat="48.72352" lon="1.9479">
        <ele>143.79998779297</ele>
        <time>2016-07-17T08:53:35Z</time>
      </trkpt>
      <trkpt lat="48.72347" lon="1.94802">
        <ele>143.20001220703</ele>
        <time>2016-07-17T08:53:41Z</time>
      </trkpt>
      <trkpt lat="48.72337" lon="1.94827">
        <ele>142.40002441406</ele>
        <time>2016-07-17T08:53:54Z</time>
      </trkpt>
      <trkpt lat="48.72327" lon="1.94851">
        <ele>141</ele>
        <time>2016-07-17T08:54:07Z</time>
      </trkpt>
      <trkpt lat="48.72326" lon="1.94853">
        <ele>141</ele>
        <time>2016-07-17T08:54:08Z</time>
      </trkpt>
      <trkpt lat="48.7232" lon="1.94868">
        <ele>139.79998779297</ele>
        <time>2016-07-17T08:54:17Z</time>
      </trkpt>
      <trkpt lat="48.7232" lon="1.94869">
        <ele>139.59997558594</ele>
        <time>2016-07-17T08:54:18Z</time>
      </trkpt>
      <trkpt lat="48.72308" lon="1.94891">
        <ele>137</ele>
        <time>2016-07-17T08:54:32Z</time>
      </trkpt>
      <trkpt lat="48.72311" lon="1.94916">
        <ele>133.59997558594</ele>
        <time>2016-07-17T08:54:45Z</time>
      </trkpt>
      <trkpt lat="48.72322" lon="1.94937">
        <ele>131</ele>
        <time>2016-07-17T08:54:58Z</time>
      </trkpt>
      <trkpt lat="48.72334" lon="1.94958">
        <ele>129.40002441406</ele>
        <time>2016-07-17T08:55:10Z</time>
      </trkpt>
      <trkpt lat="48.72343" lon="1.94973">
        <ele>128.20001220703</ele>
        <time>2016-07-17T08:55:20Z</time>
      </trkpt>
      <trkpt lat="48.72354" lon="1.94995">
        <ele>127</ele>
        <time>2016-07-17T08:55:34Z</time>
      </trkpt>
      <trkpt lat="48.72365" lon="1.95017">
        <ele>125.79998779297</ele>
        <time>2016-07-17T08:55:48Z</time>
      </trkpt>
      <trkpt lat="48.72377" lon="1.95038">
        <ele>123.79998779297</ele>
        <time>2016-07-17T08:56:01Z</time>
      </trkpt>
      <trkpt lat="48.7239" lon="1.9506">
        <ele>122.59997558594</ele>
        <time>2016-07-17T08:56:14Z</time>
      </trkpt>
      <trkpt lat="48.72402" lon="1.95082">
        <ele>122.40002441406</ele>
        <time>2016-07-17T08:56:27Z</time>
      </trkpt>
      <trkpt lat="48.72413" lon="1.95103">
        <ele>122.40002441406</ele>
        <time>2016-07-17T08:56:39Z</time>
      </trkpt>
      <trkpt lat="48.72426" lon="1.95125">
        <ele>121.59997558594</ele>
        <time>2016-07-17T08:56:52Z</time>
      </trkpt>
      <trkpt lat="48.72436" lon="1.95148">
        <ele>120.59997558594</ele>
        <time>2016-07-17T08:57:05Z</time>
      </trkpt>
      <trkpt lat="48.72448" lon="1.95171">
        <ele>118.79998779297</ele>
        <time>2016-07-17T08:57:19Z</time>
      </trkpt>
      <trkpt lat="48.72459" lon="1.95193">
        <ele>117.59997558594</ele>
        <time>2016-07-17T08:57:32Z</time>
      </trkpt>
      <trkpt lat="48.72471" lon="1.95214">
        <ele>117</ele>
        <time>2016-07-17T08:57:44Z</time>
      </trkpt>
      <trkpt lat="48.72483" lon="1.95236">
        <ele>115.59997558594</ele>
        <time>2016-07-17T08:57:57Z</time>
      </trkpt>
      <trkpt lat="48.72496" lon="1.95258">
        <ele>113.20001220703</ele>
        <time>2016-07-17T08:58:11Z</time>
      </trkpt>
      <trkpt lat="48.72508" lon="1.95279">
        <ele>111.79998779297</ele>
        <time>2016-07-17T08:58:23Z</time>
      </trkpt>
      <trkpt lat="48.7252" lon="1.95301">
        <ele>110.40002441406</ele>
        <time>2016-07-17T08:58:35Z</time>
      </trkpt>
      <trkpt lat="48.72522" lon="1.95325">
        <ele>109.59997558594</ele>
        <time>2016-07-17T08:58:48Z</time>
      </trkpt>
      <trkpt lat="48.7252" lon="1.95331">
        <ele>109</ele>
        <time>2016-07-17T08:58:52Z</time>
      </trkpt>
      <trkpt lat="48.72504" lon="1.95344">
        <ele>108.40002441406</ele>
        <time>2016-07-17T08:59:05Z</time>
      </trkpt>
      <trkpt lat="48.72487" lon="1.95357">
        <ele>108.59997558594</ele>
        <time>2016-07-17T08:59:17Z</time>
      </trkpt>
      <trkpt lat="48.72471" lon="1.9537">
        <ele>109.20001220703</ele>
        <time>2016-07-17T08:59:29Z</time>
      </trkpt>
      <trkpt lat="48.72454" lon="1.95383">
        <ele>109.59997558594</ele>
        <time>2016-07-17T08:59:42Z</time>
      </trkpt>
      <trkpt lat="48.72436" lon="1.95395">
        <ele>109.59997558594</ele>
        <time>2016-07-17T08:59:55Z</time>
      </trkpt>
      <trkpt lat="48.7242" lon="1.95408">
        <ele>111.20001220703</ele>
        <time>2016-07-17T09:00:08Z</time>
      </trkpt>
      <trkpt lat="48.72402" lon="1.9542">
        <ele>110.40002441406</ele>
        <time>2016-07-17T09:00:21Z</time>
      </trkpt>
      <trkpt lat="48.72386" lon="1.95434">
        <ele>110.79998779297</ele>
        <time>2016-07-17T09:00:34Z</time>
      </trkpt>
      <trkpt lat="48.7237" lon="1.95446">
        <ele>110</ele>
        <time>2016-07-17T09:00:47Z</time>
      </trkpt>
      <trkpt lat="48.72365" lon="1.95449">
        <ele>109.59997558594</ele>
        <time>2016-07-17T09:00:51Z</time>
      </trkpt>
      <trkpt lat="48.72356" lon="1.95458">
        <ele>109</ele>
        <time>2016-07-17T09:00:59Z</time>
      </trkpt>
      <trkpt lat="48.72355" lon="1.95462">
        <ele>108.79998779297</ele>
        <time>2016-07-17T09:01:01Z</time>
      </trkpt>
      <trkpt lat="48.72363" lon="1.95487">
        <ele>108.20001220703</ele>
        <time>2016-07-17T09:01:15Z</time>
      </trkpt>
      <trkpt lat="48.7237" lon="1.95513">
        <ele>105.40002441406</ele>
        <time>2016-07-17T09:01:29Z</time>
      </trkpt>
      <trkpt lat="48.72379" lon="1.95538">
        <ele>106</ele>
        <time>2016-07-17T09:01:42Z</time>
      </trkpt>
      <trkpt lat="48.72388" lon="1.95563">
        <ele>104</ele>
        <time>2016-07-17T09:01:55Z</time>
      </trkpt>
      <trkpt lat="48.72393" lon="1.9559">
        <ele>102</ele>
        <time>2016-07-17T09:02:09Z</time>
      </trkpt>
      <trkpt lat="48.72398" lon="1.95608">
        <ele>101.40002441406</ele>
        <time>2016-07-17T09:02:18Z</time>
      </trkpt>
      <trkpt lat="48.72394" lon="1.9562">
        <ele>100.40002441406</ele>
        <time>2016-07-17T09:02:25Z</time>
      </trkpt>
      <trkpt lat="48.72393" lon="1.95621">
        <ele>100.40002441406</ele>
        <time>2016-07-17T09:02:26Z</time>
      </trkpt>
      <trkpt lat="48.72392" lon="1.95629">
        <ele>100</ele>
        <time>2016-07-17T09:02:34Z</time>
      </trkpt>
      <trkpt lat="48.72395" lon="1.95654">
        <ele>101.79998779297</ele>
        <time>2016-07-17T09:02:57Z</time>
      </trkpt>
      <trkpt lat="48.72413" lon="1.95661">
        <ele>102.20001220703</ele>
        <time>2016-07-17T09:03:13Z</time>
      </trkpt>
      <trkpt lat="48.72431" lon="1.9567">
        <ele>106.20001220703</ele>
        <time>2016-07-17T09:03:27Z</time>
      </trkpt>
      <trkpt lat="48.72443" lon="1.95691">
        <ele>110.40002441406</ele>
        <time>2016-07-17T09:03:41Z</time>
      </trkpt>
      <trkpt lat="48.72445" lon="1.95719">
        <ele>114.40002441406</ele>
        <time>2016-07-17T09:03:54Z</time>
      </trkpt>
      <trkpt lat="48.72444" lon="1.95747">
        <ele>117.40002441406</ele>
        <time>2016-07-17T09:04:08Z</time>
      </trkpt>
      <trkpt lat="48.72442" lon="1.95757">
        <ele>118.79998779297</ele>
        <time>2016-07-17T09:04:14Z</time>
      </trkpt>
      <trkpt lat="48.72437" lon="1.95775">
        <ele>122</ele>
        <time>2016-07-17T09:04:26Z</time>
      </trkpt>
      <trkpt lat="48.72437" lon="1.95786">
        <ele>123.40002441406</ele>
        <time>2016-07-17T09:04:32Z</time>
      </trkpt>
      <trkpt lat="48.72436" lon="1.95788">
        <ele>124</ele>
        <time>2016-07-17T09:04:34Z</time>
      </trkpt>
      <trkpt lat="48.72427" lon="1.95795">
        <ele>124.79998779297</ele>
        <time>2016-07-17T09:04:59Z</time>
      </trkpt>
      <trkpt lat="48.72428" lon="1.95819">
        <ele>125.79998779297</ele>
        <time>2016-07-17T09:05:18Z</time>
      </trkpt>
      <trkpt lat="48.72427" lon="1.95847">
        <ele>126.40002441406</ele>
        <time>2016-07-17T09:05:33Z</time>
      </trkpt>
      <trkpt lat="48.72428" lon="1.95858">
        <ele>126.59997558594</ele>
        <time>2016-07-17T09:05:40Z</time>
      </trkpt>
      <trkpt lat="48.7243" lon="1.95866">
        <ele>126.59997558594</ele>
        <time>2016-07-17T09:05:46Z</time>
      </trkpt>
      <trkpt lat="48.72426" lon="1.9588">
        <ele>127</ele>
        <time>2016-07-17T09:07:33Z</time>
      </trkpt>
      <trkpt lat="48.72422" lon="1.95867">
        <ele>127</ele>
        <time>2016-07-17T09:09:10Z</time>
      </trkpt>
      <trkpt lat="48.72431" lon="1.95888">
        <ele>126.20001220703</ele>
        <time>2016-07-17T09:09:54Z</time>
      </trkpt>
      <trkpt lat="48.72429" lon="1.95915">
        <ele>126.40002441406</ele>
        <time>2016-07-17T09:10:09Z</time>
      </trkpt>
      <trkpt lat="48.72428" lon="1.95923">
        <ele>126</ele>
        <time>2016-07-17T09:10:13Z</time>
      </trkpt>
      <trkpt lat="48.72429" lon="1.95937">
        <ele>125.79998779297</ele>
        <time>2016-07-17T09:10:20Z</time>
      </trkpt>
      <trkpt lat="48.72437" lon="1.95962">
        <ele>126.79998779297</ele>
        <time>2016-07-17T09:10:33Z</time>
      </trkpt>
      <trkpt lat="48.72437" lon="1.95964">
        <ele>127</ele>
        <time>2016-07-17T09:10:34Z</time>
      </trkpt>
      <trkpt lat="48.72441" lon="1.95978">
        <ele>128</ele>
        <time>2016-07-17T09:10:42Z</time>
      </trkpt>
      <trkpt lat="48.72445" lon="1.9599">
        <ele>128.59997558594</ele>
        <time>2016-07-17T09:10:49Z</time>
      </trkpt>
      <trkpt lat="48.7245" lon="1.96003">
        <ele>129.40002441406</ele>
        <time>2016-07-17T09:10:57Z</time>
      </trkpt>
      <trkpt lat="48.72451" lon="1.96009">
        <ele>130</ele>
        <time>2016-07-17T09:11:01Z</time>
      </trkpt>
      <trkpt lat="48.72455" lon="1.9602">
        <ele>131.79998779297</ele>
        <time>2016-07-17T09:11:10Z</time>
      </trkpt>
      <trkpt lat="48.72456" lon="1.96048">
        <ele>135</ele>
        <time>2016-07-17T09:11:25Z</time>
      </trkpt>
      <trkpt lat="48.72456" lon="1.96075">
        <ele>137.20001220703</ele>
        <time>2016-07-17T09:11:41Z</time>
      </trkpt>
      <trkpt lat="48.7246" lon="1.96104">
        <ele>140.59997558594</ele>
        <time>2016-07-17T09:11:56Z</time>
      </trkpt>
      <trkpt lat="48.72464" lon="1.96131">
        <ele>143.20001220703</ele>
        <time>2016-07-17T09:12:11Z</time>
      </trkpt>
      <trkpt lat="48.72469" lon="1.96158">
        <ele>145.79998779297</ele>
        <time>2016-07-17T09:12:26Z</time>
      </trkpt>
      <trkpt lat="48.72475" lon="1.96184">
        <ele>149</ele>
        <time>2016-07-17T09:12:47Z</time>
      </trkpt>
      <trkpt lat="48.72471" lon="1.96211">
        <ele>150.59997558594</ele>
        <time>2016-07-17T09:13:08Z</time>
      </trkpt>
      <trkpt lat="48.7246" lon="1.96233">
        <ele>152.20001220703</ele>
        <time>2016-07-17T09:13:26Z</time>
      </trkpt>
      <trkpt lat="48.72449" lon="1.96255">
        <ele>154</ele>
        <time>2016-07-17T09:13:42Z</time>
      </trkpt>
      <trkpt lat="48.72434" lon="1.9627">
        <ele>155.59997558594</ele>
        <time>2016-07-17T09:13:57Z</time>
      </trkpt>
      <trkpt lat="48.72434" lon="1.9627">
        <ele>155.59997558594</ele>
        <time>2016-07-17T09:13:58Z</time>
      </trkpt>
      <trkpt lat="48.72417" lon="1.96273">
        <ele>156</ele>
        <time>2016-07-17T09:14:52Z</time>
      </trkpt>
      <trkpt lat="48.72398" lon="1.96266">
        <ele>155.79998779297</ele>
        <time>2016-07-17T09:15:06Z</time>
      </trkpt>
      <trkpt lat="48.72379" lon="1.96258">
        <ele>155.59997558594</ele>
        <time>2016-07-17T09:15:21Z</time>
      </trkpt>
      <trkpt lat="48.72362" lon="1.9625">
        <ele>155.59997558594</ele>
        <time>2016-07-17T09:15:38Z</time>
      </trkpt>
      <trkpt lat="48.72345" lon="1.96238">
        <ele>156.20001220703</ele>
        <time>2016-07-17T09:15:52Z</time>
      </trkpt>
      <trkpt lat="48.72328" lon="1.96225">
        <ele>156</ele>
        <time>2016-07-17T09:16:04Z</time>
      </trkpt>
      <trkpt lat="48.72312" lon="1.96213">
        <ele>155.40002441406</ele>
        <time>2016-07-17T09:16:17Z</time>
      </trkpt>
      <trkpt lat="48.72294" lon="1.96203">
        <ele>154.20001220703</ele>
        <time>2016-07-17T09:16:31Z</time>
      </trkpt>
      <trkpt lat="48.72277" lon="1.96195">
        <ele>153.20001220703</ele>
        <time>2016-07-17T09:16:44Z</time>
      </trkpt>
      <trkpt lat="48.72259" lon="1.96192">
        <ele>152.40002441406</ele>
        <time>2016-07-17T09:16:55Z</time>
      </trkpt>
      <trkpt lat="48.72241" lon="1.96189">
        <ele>151.20001220703</ele>
        <time>2016-07-17T09:17:09Z</time>
      </trkpt>
      <trkpt lat="48.72238" lon="1.96189">
        <ele>151.20001220703</ele>
        <time>2016-07-17T09:17:11Z</time>
      </trkpt>
      <trkpt lat="48.72231" lon="1.96192">
        <ele>151</ele>
        <time>2016-07-17T09:17:16Z</time>
      </trkpt>
      <trkpt lat="48.72221" lon="1.96191">
        <ele>150.59997558594</ele>
        <time>2016-07-17T09:17:24Z</time>
      </trkpt>
      <trkpt lat="48.72214" lon="1.96192">
        <ele>150.20001220703</ele>
        <time>2016-07-17T09:17:29Z</time>
      </trkpt>
      <trkpt lat="48.72196" lon="1.96192">
        <ele>150.20001220703</ele>
        <time>2016-07-17T09:17:42Z</time>
      </trkpt>
      <trkpt lat="48.7219" lon="1.96192">
        <ele>149.79998779297</ele>
        <time>2016-07-17T09:17:48Z</time>
      </trkpt>
      <trkpt lat="48.72172" lon="1.96194">
        <ele>148.59997558594</ele>
        <time>2016-07-17T09:18:04Z</time>
      </trkpt>
      <trkpt lat="48.72157" lon="1.96201">
        <ele>147</ele>
        <time>2016-07-17T09:18:15Z</time>
      </trkpt>
      <trkpt lat="48.72142" lon="1.96216">
        <ele>143.59997558594</ele>
        <time>2016-07-17T09:18:28Z</time>
      </trkpt>
      <trkpt lat="48.72133" lon="1.96225">
        <ele>141.40002441406</ele>
        <time>2016-07-17T09:18:36Z</time>
      </trkpt>
      <trkpt lat="48.7213" lon="1.96228">
        <ele>140.59997558594</ele>
        <time>2016-07-17T09:18:39Z</time>
      </trkpt>
      <trkpt lat="48.72126" lon="1.96235">
        <ele>139</ele>
        <time>2016-07-17T09:18:44Z</time>
      </trkpt>
      <trkpt lat="48.7212" lon="1.96243">
        <ele>137.59997558594</ele>
        <time>2016-07-17T09:18:49Z</time>
      </trkpt>
      <trkpt lat="48.72118" lon="1.96246">
        <ele>137.20001220703</ele>
        <time>2016-07-17T09:18:51Z</time>
      </trkpt>
      <trkpt lat="48.7211" lon="1.96257">
        <ele>135.40002441406</ele>
        <time>2016-07-17T09:18:58Z</time>
      </trkpt>
      <trkpt lat="48.72105" lon="1.9627">
        <ele>134</ele>
        <time>2016-07-17T09:19:05Z</time>
      </trkpt>
      <trkpt lat="48.72093" lon="1.96287">
        <ele>133.40002441406</ele>
        <time>2016-07-17T09:19:21Z</time>
      </trkpt>
      <trkpt lat="48.72086" lon="1.96311">
        <ele>134</ele>
        <time>2016-07-17T09:19:33Z</time>
      </trkpt>
      <trkpt lat="48.72085" lon="1.96319">
        <ele>133.20001220703</ele>
        <time>2016-07-17T09:19:37Z</time>
      </trkpt>
      <trkpt lat="48.72084" lon="1.96333">
        <ele>132.20001220703</ele>
        <time>2016-07-17T09:19:45Z</time>
      </trkpt>
      <trkpt lat="48.72078" lon="1.96338">
        <ele>131.79998779297</ele>
        <time>2016-07-17T09:19:50Z</time>
      </trkpt>
      <trkpt lat="48.72061" lon="1.96351">
        <ele>130</ele>
        <time>2016-07-17T09:20:02Z</time>
      </trkpt>
      <trkpt lat="48.72057" lon="1.96356">
        <ele>129.59997558594</ele>
        <time>2016-07-17T09:20:06Z</time>
      </trkpt>
      <trkpt lat="48.72047" lon="1.96379">
        <ele>125.59997558594</ele>
        <time>2016-07-17T09:20:19Z</time>
      </trkpt>
      <trkpt lat="48.72039" lon="1.96402">
        <ele>122.20001220703</ele>
        <time>2016-07-17T09:20:33Z</time>
      </trkpt>
      <trkpt lat="48.72031" lon="1.96426">
        <ele>120.20001220703</ele>
        <time>2016-07-17T09:20:46Z</time>
      </trkpt>
      <trkpt lat="48.72023" lon="1.96451">
        <ele>119.59997558594</ele>
        <time>2016-07-17T09:20:57Z</time>
      </trkpt>
      <trkpt lat="48.72021" lon="1.96454">
        <ele>119.79998779297</ele>
        <time>2016-07-17T09:20:59Z</time>
      </trkpt>
      <trkpt lat="48.72018" lon="1.96469">
        <ele>119</ele>
        <time>2016-07-17T09:21:07Z</time>
      </trkpt>
      <trkpt lat="48.7201" lon="1.96486">
        <ele>119</ele>
        <time>2016-07-17T09:21:16Z</time>
      </trkpt>
      <trkpt lat="48.72003" lon="1.96498">
        <ele>118.59997558594</ele>
        <time>2016-07-17T09:21:25Z</time>
      </trkpt>
      <trkpt lat="48.71991" lon="1.96518">
        <ele>118.79998779297</ele>
        <time>2016-07-17T09:21:36Z</time>
      </trkpt>
      <trkpt lat="48.71989" lon="1.96527">
        <ele>118.59997558594</ele>
        <time>2016-07-17T09:21:41Z</time>
      </trkpt>
      <trkpt lat="48.71988" lon="1.96533">
        <ele>118.40002441406</ele>
        <time>2016-07-17T09:21:44Z</time>
      </trkpt>
      <trkpt lat="48.71987" lon="1.9654">
        <ele>118.40002441406</ele>
        <time>2016-07-17T09:21:49Z</time>
      </trkpt>
      <trkpt lat="48.71985" lon="1.96554">
        <ele>117.79998779297</ele>
        <time>2016-07-17T09:21:55Z</time>
      </trkpt>
      <trkpt lat="48.71978" lon="1.96574">
        <ele>120.59997558594</ele>
        <time>2016-07-17T09:22:02Z</time>
      </trkpt>
      <trkpt lat="48.71964" lon="1.96595">
        <ele>121.79998779297</ele>
        <time>2016-07-17T09:22:15Z</time>
      </trkpt>
      <trkpt lat="48.71962" lon="1.96598">
        <ele>121.79998779297</ele>
        <time>2016-07-17T09:22:17Z</time>
      </trkpt>
      <trkpt lat="48.71953" lon="1.96622">
        <ele>122</ele>
        <time>2016-07-17T09:22:29Z</time>
      </trkpt>
      <trkpt lat="48.71948" lon="1.96633">
        <ele>122.40002441406</ele>
        <time>2016-07-17T09:22:35Z</time>
      </trkpt>
      <trkpt lat="48.71935" lon="1.96655">
        <ele>125.40002441406</ele>
        <time>2016-07-17T09:22:47Z</time>
      </trkpt>
      <trkpt lat="48.71931" lon="1.96662">
        <ele>126</ele>
        <time>2016-07-17T09:22:52Z</time>
      </trkpt>
      <trkpt lat="48.71928" lon="1.96684">
        <ele>126.20001220703</ele>
        <time>2016-07-17T09:23:05Z</time>
      </trkpt>
      <trkpt lat="48.71927" lon="1.96692">
        <ele>126.20001220703</ele>
        <time>2016-07-17T09:23:09Z</time>
      </trkpt>
      <trkpt lat="48.71924" lon="1.9671">
        <ele>125.40002441406</ele>
        <time>2016-07-17T09:23:19Z</time>
      </trkpt>
      <trkpt lat="48.71923" lon="1.96722">
        <ele>125.59997558594</ele>
        <time>2016-07-17T09:23:24Z</time>
      </trkpt>
      <trkpt lat="48.71923" lon="1.96739">
        <ele>126</ele>
        <time>2016-07-17T09:23:32Z</time>
      </trkpt>
      <trkpt lat="48.71926" lon="1.96749">
        <ele>126.20001220703</ele>
        <time>2016-07-17T09:23:37Z</time>
      </trkpt>
      <trkpt lat="48.71928" lon="1.96775">
        <ele>129.59997558594</ele>
        <time>2016-07-17T09:23:52Z</time>
      </trkpt>
      <trkpt lat="48.71928" lon="1.96778">
        <ele>130.40002441406</ele>
        <time>2016-07-17T09:23:54Z</time>
      </trkpt>
      <trkpt lat="48.71922" lon="1.96802">
        <ele>134.79998779297</ele>
        <time>2016-07-17T09:24:22Z</time>
      </trkpt>
      <trkpt lat="48.71927" lon="1.96827">
        <ele>137</ele>
        <time>2016-07-17T09:24:48Z</time>
      </trkpt>
      <trkpt lat="48.71938" lon="1.96849">
        <ele>138.79998779297</ele>
        <time>2016-07-17T09:25:07Z</time>
      </trkpt>
      <trkpt lat="48.71954" lon="1.96859">
        <ele>140.40002441406</ele>
        <time>2016-07-17T09:25:22Z</time>
      </trkpt>
      <trkpt lat="48.71972" lon="1.96853">
        <ele>141</ele>
        <time>2016-07-17T09:25:38Z</time>
      </trkpt>
      <trkpt lat="48.7199" lon="1.96854">
        <ele>143</ele>
        <time>2016-07-17T09:25:53Z</time>
      </trkpt>
      <trkpt lat="48.72009" lon="1.96853">
        <ele>145.40002441406</ele>
        <time>2016-07-17T09:26:06Z</time>
      </trkpt>
      <trkpt lat="48.72016" lon="1.96852">
        <ele>146.40002441406</ele>
        <time>2016-07-17T09:26:10Z</time>
      </trkpt>
      <trkpt lat="48.72035" lon="1.96846">
        <ele>146.59997558594</ele>
        <time>2016-07-17T09:26:25Z</time>
      </trkpt>
      <trkpt lat="48.72053" lon="1.96841">
        <ele>147.79998779297</ele>
        <time>2016-07-17T09:26:37Z</time>
      </trkpt>
      <trkpt lat="48.72069" lon="1.96836">
        <ele>152.59997558594</ele>
        <time>2016-07-17T09:26:49Z</time>
      </trkpt>
      <trkpt lat="48.72078" lon="1.9683">
        <ele>154.40002441406</ele>
        <time>2016-07-17T09:26:56Z</time>
      </trkpt>
      <trkpt lat="48.72096" lon="1.96822">
        <ele>157.40002441406</ele>
        <time>2016-07-17T09:27:08Z</time>
      </trkpt>
      <trkpt lat="48.7211" lon="1.96813">
        <ele>157.20001220703</ele>
        <time>2016-07-17T09:27:17Z</time>
      </trkpt>
      <trkpt lat="48.72126" lon="1.96799">
        <ele>157.20001220703</ele>
        <time>2016-07-17T09:27:29Z</time>
      </trkpt>
      <trkpt lat="48.72129" lon="1.96796">
        <ele>157.40002441406</ele>
        <time>2016-07-17T09:27:32Z</time>
      </trkpt>
      <trkpt lat="48.72139" lon="1.96792">
        <ele>156.79998779297</ele>
        <time>2016-07-17T09:27:39Z</time>
      </trkpt>
      <trkpt lat="48.72148" lon="1.96789">
        <ele>156.40002441406</ele>
        <time>2016-07-17T09:27:46Z</time>
      </trkpt>
      <trkpt lat="48.72162" lon="1.96783">
        <ele>155.59997558594</ele>
        <time>2016-07-17T09:27:56Z</time>
      </trkpt>
      <trkpt lat="48.72174" lon="1.96778">
        <ele>153.40002441406</ele>
        <time>2016-07-17T09:28:04Z</time>
      </trkpt>
      <trkpt lat="48.72191" lon="1.96769">
        <ele>150.20001220703</ele>
        <time>2016-07-17T09:28:18Z</time>
      </trkpt>
      <trkpt lat="48.72197" lon="1.96765">
        <ele>149.59997558594</ele>
        <time>2016-07-17T09:28:23Z</time>
      </trkpt>
      <trkpt lat="48.72203" lon="1.96763">
        <ele>149.40002441406</ele>
        <time>2016-07-17T09:28:27Z</time>
      </trkpt>
      <trkpt lat="48.7222" lon="1.96755">
        <ele>149.20001220703</ele>
        <time>2016-07-17T09:28:39Z</time>
      </trkpt>
      <trkpt lat="48.72229" lon="1.9675">
        <ele>148.79998779297</ele>
        <time>2016-07-17T09:28:46Z</time>
      </trkpt>
      <trkpt lat="48.72237" lon="1.96746">
        <ele>148.59997558594</ele>
        <time>2016-07-17T09:28:51Z</time>
      </trkpt>
      <trkpt lat="48.72244" lon="1.96739">
        <ele>147.59997558594</ele>
        <time>2016-07-17T09:28:58Z</time>
      </trkpt>
      <trkpt lat="48.7225" lon="1.96734">
        <ele>147.20001220703</ele>
        <time>2016-07-17T09:29:03Z</time>
      </trkpt>
      <trkpt lat="48.72261" lon="1.96729">
        <ele>146.59997558594</ele>
        <time>2016-07-17T09:29:12Z</time>
      </trkpt>
      <trkpt lat="48.72273" lon="1.96721">
        <ele>146.79998779297</ele>
        <time>2016-07-17T09:29:22Z</time>
      </trkpt>
      <trkpt lat="48.72291" lon="1.96717">
        <ele>146.20001220703</ele>
        <time>2016-07-17T09:29:34Z</time>
      </trkpt>
      <trkpt lat="48.72309" lon="1.96715">
        <ele>149.59997558594</ele>
        <time>2016-07-17T09:29:46Z</time>
      </trkpt>
      <trkpt lat="48.72327" lon="1.96716">
        <ele>153</ele>
        <time>2016-07-17T09:30:01Z</time>
      </trkpt>
      <trkpt lat="48.72328" lon="1.96716">
        <ele>152.79998779297</ele>
        <time>2016-07-17T09:30:02Z</time>
      </trkpt>
      <trkpt lat="48.72347" lon="1.96716">
        <ele>158</ele>
        <time>2016-07-17T09:30:16Z</time>
      </trkpt>
      <trkpt lat="48.72365" lon="1.96719">
        <ele>160</ele>
        <time>2016-07-17T09:30:29Z</time>
      </trkpt>
      <trkpt lat="48.72383" lon="1.96724">
        <ele>159.79998779297</ele>
        <time>2016-07-17T09:30:42Z</time>
      </trkpt>
      <trkpt lat="48.72392" lon="1.96726">
        <ele>159.40002441406</ele>
        <time>2016-07-17T09:30:49Z</time>
      </trkpt>
      <trkpt lat="48.72393" lon="1.96727">
        <ele>158.59997558594</ele>
        <time>2016-07-17T09:30:50Z</time>
      </trkpt>
      <trkpt lat="48.72411" lon="1.96726">
        <ele>157.79998779297</ele>
        <time>2016-07-17T09:31:01Z</time>
      </trkpt>
      <trkpt lat="48.72422" lon="1.96724">
        <ele>157.79998779297</ele>
        <time>2016-07-17T09:31:10Z</time>
      </trkpt>
      <trkpt lat="48.72441" lon="1.96724">
        <ele>159.79998779297</ele>
        <time>2016-07-17T09:31:24Z</time>
      </trkpt>
      <trkpt lat="48.72459" lon="1.96713">
        <ele>158.20001220703</ele>
        <time>2016-07-17T09:31:36Z</time>
      </trkpt>
      <trkpt lat="48.72471" lon="1.96694">
        <ele>154</ele>
        <time>2016-07-17T09:31:49Z</time>
      </trkpt>
      <trkpt lat="48.72483" lon="1.96673">
        <ele>150</ele>
        <time>2016-07-17T09:32:04Z</time>
      </trkpt>
      <trkpt lat="48.72494" lon="1.9665">
        <ele>147.40002441406</ele>
        <time>2016-07-17T09:32:18Z</time>
      </trkpt>
      <trkpt lat="48.72501" lon="1.96625">
        <ele>145.20001220703</ele>
        <time>2016-07-17T09:32:33Z</time>
      </trkpt>
      <trkpt lat="48.72507" lon="1.96598">
        <ele>143.79998779297</ele>
        <time>2016-07-17T09:32:46Z</time>
      </trkpt>
      <trkpt lat="48.72509" lon="1.9657">
        <ele>141.20001220703</ele>
        <time>2016-07-17T09:32:59Z</time>
      </trkpt>
      <trkpt lat="48.7251" lon="1.96541">
        <ele>138.59997558594</ele>
        <time>2016-07-17T09:33:12Z</time>
      </trkpt>
      <trkpt lat="48.72513" lon="1.96512">
        <ele>135.40002441406</ele>
        <time>2016-07-17T09:33:26Z</time>
      </trkpt>
      <trkpt lat="48.72514" lon="1.96484">
        <ele>134.20001220703</ele>
        <time>2016-07-17T09:33:38Z</time>
      </trkpt>
      <trkpt lat="48.72514" lon="1.96457">
        <ele>132.59997558594</ele>
        <time>2016-07-17T09:33:52Z</time>
      </trkpt>
      <trkpt lat="48.72518" lon="1.96429">
        <ele>130.79998779297</ele>
        <time>2016-07-17T09:34:05Z</time>
      </trkpt>
      <trkpt lat="48.72517" lon="1.96401">
        <ele>130.59997558594</ele>
        <time>2016-07-17T09:34:15Z</time>
      </trkpt>
      <trkpt lat="48.72517" lon="1.96395">
        <ele>130.20001220703</ele>
        <time>2016-07-17T09:34:18Z</time>
      </trkpt>
      <trkpt lat="48.72516" lon="1.96385">
        <ele>130</ele>
        <time>2016-07-17T09:34:23Z</time>
      </trkpt>
      <trkpt lat="48.72519" lon="1.9636">
        <ele>129</ele>
        <time>2016-07-17T09:34:38Z</time>
      </trkpt>
      <trkpt lat="48.72538" lon="1.96362">
        <ele>132</ele>
        <time>2016-07-17T09:34:57Z</time>
      </trkpt>
      <trkpt lat="48.72555" lon="1.96373">
        <ele>131.79998779297</ele>
        <time>2016-07-17T09:35:12Z</time>
      </trkpt>
      <trkpt lat="48.72573" lon="1.96383">
        <ele>131</ele>
        <time>2016-07-17T09:35:25Z</time>
      </trkpt>
      <trkpt lat="48.7258" lon="1.9639">
        <ele>131.20001220703</ele>
        <time>2016-07-17T09:35:32Z</time>
      </trkpt>
      <trkpt lat="48.72597" lon="1.96403">
        <ele>133</ele>
        <time>2016-07-17T09:35:46Z</time>
      </trkpt>
      <trkpt lat="48.726" lon="1.96406">
        <ele>133.40002441406</ele>
        <time>2016-07-17T09:35:49Z</time>
      </trkpt>
      <trkpt lat="48.72608" lon="1.9641">
        <ele>134.40002441406</ele>
        <time>2016-07-17T09:35:55Z</time>
      </trkpt>
      <trkpt lat="48.72614" lon="1.96414">
        <ele>136.40002441406</ele>
        <time>2016-07-17T09:36:00Z</time>
      </trkpt>
      <trkpt lat="48.72628" lon="1.96421">
        <ele>140.79998779297</ele>
        <time>2016-07-17T09:36:11Z</time>
      </trkpt>
      <trkpt lat="48.72638" lon="1.96428">
        <ele>143</ele>
        <time>2016-07-17T09:36:18Z</time>
      </trkpt>
      <trkpt lat="48.72654" lon="1.96436">
        <ele>145.59997558594</ele>
        <time>2016-07-17T09:36:29Z</time>
      </trkpt>
      <trkpt lat="48.72672" lon="1.96446">
        <ele>149</ele>
        <time>2016-07-17T09:36:40Z</time>
      </trkpt>
      <trkpt lat="48.7269" lon="1.96458">
        <ele>151.20001220703</ele>
        <time>2016-07-17T09:36:51Z</time>
      </trkpt>
      <trkpt lat="48.72707" lon="1.96466">
        <ele>152.40002441406</ele>
        <time>2016-07-17T09:37:03Z</time>
      </trkpt>
      <trkpt lat="48.72726" lon="1.96471">
        <ele>154.20001220703</ele>
        <time>2016-07-17T09:37:16Z</time>
      </trkpt>
      <trkpt lat="48.72745" lon="1.96473">
        <ele>156.79998779297</ele>
        <time>2016-07-17T09:37:29Z</time>
      </trkpt>
      <trkpt lat="48.72765" lon="1.96474">
        <ele>159.20001220703</ele>
        <time>2016-07-17T09:37:42Z</time>
      </trkpt>
      <trkpt lat="48.72783" lon="1.96473">
        <ele>160.40002441406</ele>
        <time>2016-07-17T09:37:53Z</time>
      </trkpt>
      <trkpt lat="48.72802" lon="1.96474">
        <ele>162.20001220703</ele>
        <time>2016-07-17T09:38:05Z</time>
      </trkpt>
      <trkpt lat="48.72821" lon="1.96472">
        <ele>161.20001220703</ele>
        <time>2016-07-17T09:38:17Z</time>
      </trkpt>
      <trkpt lat="48.7284" lon="1.9647">
        <ele>161.20001220703</ele>
        <time>2016-07-17T09:38:29Z</time>
      </trkpt>
      <trkpt lat="48.72858" lon="1.96469">
        <ele>161.79998779297</ele>
        <time>2016-07-17T09:38:40Z</time>
      </trkpt>
      <trkpt lat="48.72877" lon="1.96466">
        <ele>162.40002441406</ele>
        <time>2016-07-17T09:38:53Z</time>
      </trkpt>
      <trkpt lat="48.72895" lon="1.96466">
        <ele>163</ele>
        <time>2016-07-17T09:39:05Z</time>
      </trkpt>
      <trkpt lat="48.72914" lon="1.96469">
        <ele>161</ele>
        <time>2016-07-17T09:39:18Z</time>
      </trkpt>
      <trkpt lat="48.72933" lon="1.96471">
        <ele>160.59997558594</ele>
        <time>2016-07-17T09:39:31Z</time>
      </trkpt>
      <trkpt lat="48.72951" lon="1.96473">
        <ele>161</ele>
        <time>2016-07-17T09:39:43Z</time>
      </trkpt>
      <trkpt lat="48.72971" lon="1.96474">
        <ele>160.59997558594</ele>
        <time>2016-07-17T09:39:56Z</time>
      </trkpt>
      <trkpt lat="48.72989" lon="1.96477">
        <ele>161.40002441406</ele>
        <time>2016-07-17T09:40:08Z</time>
      </trkpt>
      <trkpt lat="48.73007" lon="1.96478">
        <ele>160</ele>
        <time>2016-07-17T09:40:21Z</time>
      </trkpt>
      <trkpt lat="48.73025" lon="1.96483">
        <ele>160.20001220703</ele>
        <time>2016-07-17T09:40:33Z</time>
      </trkpt>
      <trkpt lat="48.73045" lon="1.96487">
        <ele>162.20001220703</ele>
        <time>2016-07-17T09:40:45Z</time>
      </trkpt>
      <trkpt lat="48.73063" lon="1.96488">
        <ele>164</ele>
        <time>2016-07-17T09:40:57Z</time>
      </trkpt>
      <trkpt lat="48.73082" lon="1.9649">
        <ele>163.59997558594</ele>
        <time>2016-07-17T09:41:10Z</time>
      </trkpt>
      <trkpt lat="48.73101" lon="1.96493">
        <ele>164.20001220703</ele>
        <time>2016-07-17T09:41:23Z</time>
      </trkpt>
      <trkpt lat="48.73119" lon="1.96495">
        <ele>162.20001220703</ele>
        <time>2016-07-17T09:41:35Z</time>
      </trkpt>
      <trkpt lat="48.73138" lon="1.96496">
        <ele>160.59997558594</ele>
        <time>2016-07-17T09:41:48Z</time>
      </trkpt>
      <trkpt lat="48.73156" lon="1.96499">
        <ele>161.59997558594</ele>
        <time>2016-07-17T09:41:59Z</time>
      </trkpt>
      <trkpt lat="48.73175" lon="1.96498">
        <ele>164.20001220703</ele>
        <time>2016-07-17T09:42:10Z</time>
      </trkpt>
      <trkpt lat="48.73193" lon="1.96496">
        <ele>165</ele>
        <time>2016-07-17T09:42:22Z</time>
      </trkpt>
      <trkpt lat="48.73211" lon="1.96495">
        <ele>163.59997558594</ele>
        <time>2016-07-17T09:42:34Z</time>
      </trkpt>
      <trkpt lat="48.7323" lon="1.96493">
        <ele>162.59997558594</ele>
        <time>2016-07-17T09:42:47Z</time>
      </trkpt>
      <trkpt lat="48.7325" lon="1.96494">
        <ele>162.79998779297</ele>
        <time>2016-07-17T09:42:59Z</time>
      </trkpt>
      <trkpt lat="48.73269" lon="1.96491">
        <ele>163.20001220703</ele>
        <time>2016-07-17T09:43:12Z</time>
      </trkpt>
      <trkpt lat="48.73288" lon="1.96489">
        <ele>165</ele>
        <time>2016-07-17T09:43:24Z</time>
      </trkpt>
      <trkpt lat="48.73306" lon="1.96485">
        <ele>162</ele>
        <time>2016-07-17T09:43:37Z</time>
      </trkpt>
      <trkpt lat="48.73324" lon="1.9648">
        <ele>160.40002441406</ele>
        <time>2016-07-17T09:43:50Z</time>
      </trkpt>
      <trkpt lat="48.73342" lon="1.96475">
        <ele>160.40002441406</ele>
        <time>2016-07-17T09:44:02Z</time>
      </trkpt>
      <trkpt lat="48.73361" lon="1.96471">
        <ele>160.40002441406</ele>
        <time>2016-07-17T09:44:14Z</time>
      </trkpt>
      <trkpt lat="48.73379" lon="1.96467">
        <ele>160.59997558594</ele>
        <time>2016-07-17T09:44:26Z</time>
      </trkpt>
      <trkpt lat="48.73397" lon="1.96462">
        <ele>161</ele>
        <time>2016-07-17T09:44:38Z</time>
      </trkpt>
      <trkpt lat="48.73415" lon="1.9646">
        <ele>161.20001220703</ele>
        <time>2016-07-17T09:44:50Z</time>
      </trkpt>
      <trkpt lat="48.73434" lon="1.96459">
        <ele>161.59997558594</ele>
        <time>2016-07-17T09:45:02Z</time>
      </trkpt>
      <trkpt lat="48.73453" lon="1.96458">
        <ele>162</ele>
        <time>2016-07-17T09:45:14Z</time>
      </trkpt>
      <trkpt lat="48.73472" lon="1.96459">
        <ele>161.40002441406</ele>
        <time>2016-07-17T09:45:27Z</time>
      </trkpt>
      <trkpt lat="48.73491" lon="1.96458">
        <ele>161.79998779297</ele>
        <time>2016-07-17T09:45:40Z</time>
      </trkpt>
      <trkpt lat="48.7351" lon="1.96457">
        <ele>163.20001220703</ele>
        <time>2016-07-17T09:45:53Z</time>
      </trkpt>
      <trkpt lat="48.73528" lon="1.96456">
        <ele>163.59997558594</ele>
        <time>2016-07-17T09:46:05Z</time>
      </trkpt>
      <trkpt lat="48.73547" lon="1.96454">
        <ele>164</ele>
        <time>2016-07-17T09:46:17Z</time>
      </trkpt>
      <trkpt lat="48.73565" lon="1.96453">
        <ele>166.40002441406</ele>
        <time>2016-07-17T09:46:28Z</time>
      </trkpt>
      <trkpt lat="48.73584" lon="1.96452">
        <ele>165.20001220703</ele>
        <time>2016-07-17T09:46:41Z</time>
      </trkpt>
      <trkpt lat="48.73602" lon="1.9645">
        <ele>165.79998779297</ele>
        <time>2016-07-17T09:46:54Z</time>
      </trkpt>
      <trkpt lat="48.73621" lon="1.96448">
        <ele>166</ele>
        <time>2016-07-17T09:47:07Z</time>
      </trkpt>
      <trkpt lat="48.73639" lon="1.96447">
        <ele>166.40002441406</ele>
        <time>2016-07-17T09:47:20Z</time>
      </trkpt>
      <trkpt lat="48.73659" lon="1.9645">
        <ele>166</ele>
        <time>2016-07-17T09:47:33Z</time>
      </trkpt>
      <trkpt lat="48.73677" lon="1.96453">
        <ele>167.20001220703</ele>
        <time>2016-07-17T09:47:46Z</time>
      </trkpt>
      <trkpt lat="48.73696" lon="1.96456">
        <ele>169.59997558594</ele>
        <time>2016-07-17T09:48:00Z</time>
      </trkpt>
      <trkpt lat="48.73713" lon="1.96464">
        <ele>164.79998779297</ele>
        <time>2016-07-17T09:48:13Z</time>
      </trkpt>
      <trkpt lat="48.73719" lon="1.96466">
        <ele>162.79998779297</ele>
        <time>2016-07-17T09:48:18Z</time>
      </trkpt>
      <trkpt lat="48.73735" lon="1.96472">
        <ele>165</ele>
        <time>2016-07-17T09:48:33Z</time>
      </trkpt>
      <trkpt lat="48.73738" lon="1.96473">
        <ele>165.59997558594</ele>
        <time>2016-07-17T09:48:35Z</time>
      </trkpt>
      <trkpt lat="48.7375" lon="1.96483">
        <ele>165.59997558594</ele>
        <time>2016-07-17T09:48:48Z</time>
      </trkpt>
      <trkpt lat="48.73754" lon="1.96485">
        <ele>164.59997558594</ele>
        <time>2016-07-17T09:48:52Z</time>
      </trkpt>
      <trkpt lat="48.7377" lon="1.96498">
        <ele>163.40002441406</ele>
        <time>2016-07-17T09:49:05Z</time>
      </trkpt>
      <trkpt lat="48.73786" lon="1.96513">
        <ele>162.59997558594</ele>
        <time>2016-07-17T09:49:18Z</time>
      </trkpt>
      <trkpt lat="48.738" lon="1.96531">
        <ele>161.79998779297</ele>
        <time>2016-07-17T09:49:31Z</time>
      </trkpt>
      <trkpt lat="48.73815" lon="1.96549">
        <ele>162.40002441406</ele>
        <time>2016-07-17T09:49:44Z</time>
      </trkpt>
      <trkpt lat="48.73823" lon="1.9656">
        <ele>162</ele>
        <time>2016-07-17T09:49:52Z</time>
      </trkpt>
      <trkpt lat="48.7383" lon="1.96555">
        <ele>161.59997558594</ele>
        <time>2016-07-17T09:49:58Z</time>
      </trkpt>
      <trkpt lat="48.73842" lon="1.96534">
        <ele>162.40002441406</ele>
        <time>2016-07-17T09:50:10Z</time>
      </trkpt>
      <trkpt lat="48.73844" lon="1.96528">
        <ele>162</ele>
        <time>2016-07-17T09:50:14Z</time>
      </trkpt>
      <trkpt lat="48.73849" lon="1.96516">
        <ele>162.59997558594</ele>
        <time>2016-07-17T09:50:20Z</time>
      </trkpt>
      <trkpt lat="48.73854" lon="1.96493">
        <ele>163.59997558594</ele>
        <time>2016-07-17T09:50:32Z</time>
      </trkpt>
      <trkpt lat="48.73859" lon="1.96482">
        <ele>164.40002441406</ele>
        <time>2016-07-17T09:50:37Z</time>
      </trkpt>
      <trkpt lat="48.73867" lon="1.96463">
        <ele>165.59997558594</ele>
        <time>2016-07-17T09:50:47Z</time>
      </trkpt>
      <trkpt lat="48.73872" lon="1.9645">
        <ele>165.59997558594</ele>
        <time>2016-07-17T09:50:54Z</time>
      </trkpt>
      <trkpt lat="48.73874" lon="1.96439">
        <ele>166.20001220703</ele>
        <time>2016-07-17T09:51:01Z</time>
      </trkpt>
      <trkpt lat="48.73884" lon="1.96416">
        <ele>167.20001220703</ele>
        <time>2016-07-17T09:51:15Z</time>
      </trkpt>
      <trkpt lat="48.73894" lon="1.96392">
        <ele>168.40002441406</ele>
        <time>2016-07-17T09:51:28Z</time>
      </trkpt>
      <trkpt lat="48.73897" lon="1.96376">
        <ele>168.40002441406</ele>
        <time>2016-07-17T09:51:36Z</time>
      </trkpt>
      <trkpt lat="48.73908" lon="1.96353">
        <ele>170</ele>
        <time>2016-07-17T09:51:49Z</time>
      </trkpt>
      <trkpt lat="48.73918" lon="1.9633">
        <ele>171.40002441406</ele>
        <time>2016-07-17T09:52:02Z</time>
      </trkpt>
      <trkpt lat="48.73927" lon="1.96305">
        <ele>171.40002441406</ele>
        <time>2016-07-17T09:52:16Z</time>
      </trkpt>
      <trkpt lat="48.73935" lon="1.96278">
        <ele>171.59997558594</ele>
        <time>2016-07-17T09:52:31Z</time>
      </trkpt>
      <trkpt lat="48.73945" lon="1.96255">
        <ele>172.40002441406</ele>
        <time>2016-07-17T09:52:45Z</time>
      </trkpt>
      <trkpt lat="48.73955" lon="1.96231">
        <ele>172.59997558594</ele>
        <time>2016-07-17T09:52:58Z</time>
      </trkpt>
      <trkpt lat="48.73964" lon="1.96208">
        <ele>171.40002441406</ele>
        <time>2016-07-17T09:53:13Z</time>
      </trkpt>
      <trkpt lat="48.73964" lon="1.96207">
        <ele>171.40002441406</ele>
        <time>2016-07-17T09:53:14Z</time>
      </trkpt>
      <trkpt lat="48.73963" lon="1.96205">
        <ele>171.20001220703</ele>
        <time>2016-07-17T09:54:23Z</time>
      </trkpt>
    </trkseg>
  </trk>
</gpx>